Terminal Aerodrome Forecast
Issued by NWS Cleveland, OH

Home | Current Version | Previous Version | Graphics & Text | Print | Product List | Glossary On
Versions: 1 2 3 4 5 6 7 8 9 10 11 12 13 14 15 16 17 18 19 20 21 22 23 24 25 26 27 28 29
000
FTUS41 KCLE 032106 AAB
TAFCLE
TAF AMD
KCLE 032106Z 0321/0424 27010KT P6SM BKN045
     FM040000 27006KT P6SM FEW045
     FM040900 23005KT P6SM SCT050
     FM041600 26012KT P6SM SCT050=

USA.gov is the U.S. government's official web portal to all federal, state and local government web resources and services.